Time;durP1;ratioP1;P1;durP2;ratioP2;P2;SDS_P1;SDS_P2;PMS_P1;PMS_P2;Temp;Humidity;BMP_temperature;BMP_pressure;BME280_temperature;BME280_humidity;BME280_pressure;Samples;Min_cycle;Max_cycle;Signal;HPM_P1;HPM_P2
2023/01/26 00:01:37;;;;;;;31.15;12.13;;;;;;;;;;4846935;29;20092;-74
2023/01/26 00:04:03;;;;;;;28.70;11.15;;;;;;;;;;4848115;29;20036;-74
2023/01/26 00:06:29;;;;;;;26.40;10.93;;;;;;;;;;4846681;29;20029;-74
2023/01/26 00:08:56;;;;;;;24.58;10.27;;;;;;;;;;4849735;29;20067;-74
2023/01/26 00:11:25;;;;;;;;;;;;;;;;;;4844708;29;20043;-74
2023/01/26 00:13:52;;;;;;;25.48;11.15;;;;;;;;;;4846330;29;20430;-73
2023/01/26 00:16:18;;;;;;;29.90;11.13;;;;;;;;;;4846315;29;20029;-75
2023/01/26 00:18:45;;;;;;;30.60;10.80;;;;;;;;;;4849153;29;20033;-75
2023/01/26 00:21:12;;;;;;;24.50;11.00;;;;;;;;;;4849621;29;20033;-75
2023/01/26 00:23:38;;;;;;;27.73;9.88;;;;;;;;;;4843419;29;20036;-75
2023/01/26 00:26:08;;;;;;;25.38;10.23;;;;;;;;;;4851313;29;20702;-75
2023/01/26 00:28:35;;;;;;;26.15;10.88;;;;;;;;;;4842288;29;20043;-75
2023/01/26 00:31:05;;;;;;;26.48;11.02;;;;;;;;;;4848998;29;20053;-75
2023/01/26 00:33:32;;;;;;;27.83;11.27;;;;;;;;;;4848161;29;20276;-75
2023/01/26 00:35:58;;;;;;;24.42;11.45;;;;;;;;;;4851568;29;20033;-74
2023/01/26 00:38:24;;;;;;;27.63;12.30;;;;;;;;;;4843975;29;20392;-75
2023/01/26 00:40:50;;;;;;;27.85;12.57;;;;;;;;;;4832225;29;20563;-76
2023/01/26 00:43:16;;;;;;;24.85;11.70;;;;;;;;;;4847488;29;20988;-75
2023/01/26 00:45:43;;;;;;;29.85;11.73;;;;;;;;;;4845883;29;20465;-75
2023/01/26 00:48:09;;;;;;;;;;;;;;;;;;4848161;29;20328;-74
2023/01/26 00:50:35;;;;;;;23.92;10.07;;;;;;;;;;4845582;29;20167;-75
2023/01/26 00:53:01;;;;;;;26.40;9.27;;;;;;;;;;4844428;29;20489;-75
2023/01/26 00:55:31;;;;;;;23.95;9.13;;;;;;;;;;4846762;29;20021;-75
2023/01/26 00:58:05;;;;;;;27.17;9.55;;;;;;;;;;4848697;29;20080;-75
2023/01/26 01:00:31;;;;;;;21.17;8.50;;;;;;;;;;4841853;29;20049;-75
2023/01/26 01:02:58;;;;;;;23.27;8.98;;;;;;;;;;4848883;29;20220;-75
2023/01/26 01:05:25;;;;;;;24.88;9.55;;;;;;;;;;4846562;29;20033;-75
2023/01/26 01:07:52;;;;;;;28.45;9.65;;;;;;;;;;4845468;29;20041;-74
2023/01/26 01:10:18;;;;;;;25.63;9.50;;;;;;;;;;4844289;29;20497;-75
2023/01/26 01:12:45;;;;;;;24.67;9.35;;;;;;;;;;4847054;29;20029;-75
2023/01/26 01:15:11;;;;;;;23.63;9.07;;;;;;;;;;4832868;29;20622;-74
2023/01/26 01:17:38;;;;;;;23.40;8.45;;;;;;;;;;4845541;29;22130;-74
2023/01/26 01:20:05;;;;;;;28.85;9.35;;;;;;;;;;4850232;29;20464;-74
2023/01/26 01:22:32;;;;;;;25.05;8.82;;;;;;;;;;4845147;29;20033;-74
2023/01/26 01:24:59;;;;;;;24.50;9.52;;;;;;;;;;4849512;29;20051;-74
2023/01/26 01:27:25;;;;;;;24.75;9.10;;;;;;;;;;4849767;29;20367;-74
2023/01/26 01:29:51;;;;;;;21.38;8.20;;;;;;;;;;4849369;29;20037;-74
2023/01/26 01:32:19;;;;;;;19.35;7.78;;;;;;;;;;4850710;29;20422;-74
2023/01/26 01:34:48;;;;;;;23.30;8.90;;;;;;;;;;4831626;29;20028;-74
2023/01/26 01:37:15;;;;;;;25.30;8.32;;;;;;;;;;4851063;29;20043;-74
2023/01/26 01:39:41;;;;;;;;;;;;;;;;;;4848228;29;20314;-74
2023/01/26 01:42:07;;;;;;;22.75;8.00;;;;;;;;;;4836807;29;19919;-74
2023/01/26 01:44:37;;;;;;;25.88;8.65;;;;;;;;;;4847029;29;20387;-74
2023/01/26 01:47:05;;;;;;;24.83;8.50;;;;;;;;;;4851232;29;20052;-73
2023/01/26 01:49:34;;;;;;;24.60;8.77;;;;;;;;;;4846789;29;20130;-74
2023/01/26 01:52:03;;;;;;;20.83;8.27;;;;;;;;;;4850498;29;20033;-74
2023/01/26 01:54:36;;;;;;;25.17;8.88;;;;;;;;;;4845486;29;20037;-74
2023/01/26 01:57:05;;;;;;;20.75;7.63;;;;;;;;;;4849941;29;20539;-73
2023/01/26 01:59:31;;;;;;;25.48;8.48;;;;;;;;;;4847105;29;20914;-73
2023/01/26 02:01:58;;;;;;;23.20;8.32;;;;;;;;;;4851457;29;20029;-73
2023/01/26 02:04:26;;;;;;;21.48;8.02;;;;;;;;;;4849596;29;20213;-74
2023/01/26 02:06:53;;;;;;;25.98;8.68;;;;;;;;;;4847344;29;20041;-74
2023/01/26 02:12:08;;;;;;;23.80;8.48;;;;;;;;;;4851980;29;20068;-74
2023/01/26 02:14:34;;;;;;;21.27;7.72;;;;;;;;;;4848175;29;20036;-74
2023/01/26 02:17:00;;;;;;;26.35;8.43;;;;;;;;;;4851566;29;20105;-74
2023/01/26 02:19:26;;;;;;;29.30;8.70;;;;;;;;;;4848191;29;20624;-73
2023/01/26 02:21:54;;;;;;;21.63;8.25;;;;;;;;;;4849602;29;20450;-74
2023/01/26 02:24:30;;;;;;;19.38;7.47;;;;;;;;;;4844388;29;20043;-74
2023/01/26 02:26:56;;;;;;;24.75;8.00;;;;;;;;;;4848893;29;20032;-74
2023/01/26 02:29:22;;;;;;;21.63;7.95;;;;;;;;;;4829317;29;20071;-74
2023/01/26 02:31:48;;;;;;;22.58;6.82;;;;;;;;;;4837618;29;20172;-74
2023/01/26 02:34:14;;;;;;;20.20;7.85;;;;;;;;;;4834888;29;20359;-74
2023/01/26 02:36:41;;;;;;;21.10;7.93;;;;;;;;;;4843439;29;20100;-74
2023/01/26 02:39:26;;;;;;;25.10;7.70;;;;;;;;;;4830360;29;20040;-74
2023/01/26 02:44:39;;;;;;;21.63;7.70;;;;;;;;;;4847159;29;20131;-73
2023/01/26 02:47:12;;;;;;;19.80;7.68;;;;;;;;;;4853883;29;20041;-73
2023/01/26 02:49:48;;;;;;;26.90;8.02;;;;;;;;;;4846519;29;21879;-73
2023/01/26 02:52:15;;;;;;;22.02;8.23;;;;;;;;;;4849127;29;20145;-73
2023/01/26 02:57:26;;;;;;;22.50;8.82;;;;;;;;;;5106563;23;20057;-73
2023/01/26 02:59:52;;;;;;;21.30;9.00;;;;;;;;;;4864957;29;20108;-72
2023/01/26 03:02:18;;;;;;;20.20;8.38;;;;;;;;;;4862221;29;20484;-72
2023/01/26 03:04:44;;;;;;;;;;;;;;;;;;4861374;29;20044;-72
2023/01/26 03:07:10;;;;;;;27.80;9.40;;;;;;;;;;4851817;29;19919;-72
2023/01/26 03:09:37;;;;;;;24.92;9.45;;;;;;;;;;4859568;29;20322;-72
2023/01/26 03:12:03;;;;;;;22.23;8.82;;;;;;;;;;4861323;29;20081;-72
2023/01/26 03:14:29;;;;;;;22.70;8.48;;;;;;;;;;4842559;29;20056;-72
2023/01/26 03:16:55;;;;;;;23.63;9.52;;;;;;;;;;4863893;29;20633;-72
2023/01/26 03:27:48;;;;;;;22.10;8.73;;;;;;;;;;4856132;29;20506;-72
2023/01/26 03:30:16;;;;;;;20.80;8.48;;;;;;;;;;4842882;29;20758;-74
2023/01/26 03:32:42;;;;;;;24.20;9.25;;;;;;;;;;4845799;29;20522;-71
2023/01/26 03:35:13;;;;;;;22.63;8.10;;;;;;;;;;4860912;29;20183;-71
2023/01/26 03:37:42;;;;;;;21.10;8.38;;;;;;;;;;4860084;29;20039;-72
2023/01/26 03:56:40;;;;;;;20.80;8.65;;;;;;;;;;4856437;29;20044;-72
2023/01/26 03:59:07;;;;;;;24.25;10.75;;;;;;;;;;4860553;29;20834;-73
2023/01/26 04:01:34;;;;;;;27.20;10.43;;;;;;;;;;4859563;29;20032;-73
2023/01/26 04:09:32;;;;;;;20.58;9.45;;;;;;;;;;4860385;29;20043;-72
2023/01/26 04:11:58;;;;;;;27.05;10.00;;;;;;;;;;4858843;29;20562;-72
2023/01/26 04:22:42;;;;;;;20.63;8.95;;;;;;;;;;4849596;29;21746;-72
2023/01/26 04:25:08;;;;;;;24.02;9.40;;;;;;;;;;4871262;29;20066;-72
2023/01/26 04:27:34;;;;;;;;;;;;;;;;;;4875958;29;20071;-72
2023/01/26 04:30:02;;;;;;;21.67;8.90;;;;;;;;;;4876389;29;19962;-72
2023/01/26 04:32:28;;;;;;;25.13;9.38;;;;;;;;;;4861666;29;20040;-72
2023/01/26 04:34:54;;;;;;;25.35;8.85;;;;;;;;;;4882816;29;20036;-71
2023/01/26 04:37:21;;;;;;;27.20;8.90;;;;;;;;;;4875442;29;20774;-73
2023/01/26 04:39:47;;;;;;;18.42;8.45;;;;;;;;;;4853549;29;20039;-71
2023/01/26 04:42:13;;;;;;;21.38;9.45;;;;;;;;;;4863355;29;20025;-72
2023/01/26 04:44:39;;;;;;;20.25;9.27;;;;;;;;;;4858568;29;20041;-72
2023/01/26 04:47:05;;;;;;;23.50;9.50;;;;;;;;;;4861808;29;20229;-72
2023/01/26 04:49:31;;;;;;;21.45;9.35;;;;;;;;;;4858070;29;20037;-72
2023/01/26 04:51:58;;;;;;;21.80;9.50;;;;;;;;;;4860983;29;20025;-72
2023/01/26 04:54:24;;;;;;;23.02;9.57;;;;;;;;;;4856316;29;20040;-73
2023/01/26 04:56:50;;;;;;;24.67;9.73;;;;;;;;;;4860730;29;20029;-72
2023/01/26 04:59:16;;;;;;;19.63;8.77;;;;;;;;;;4863411;29;20056;-72
2023/01/26 05:01:43;;;;;;;22.55;8.90;;;;;;;;;;4843923;29;20063;-72
2023/01/26 05:04:10;;;;;;;20.23;8.45;;;;;;;;;;4862701;29;20045;-72
2023/01/26 05:06:37;;;;;;;24.95;8.82;;;;;;;;;;4864267;29;20454;-73
2023/01/26 05:09:03;;;;;;;23.27;9.13;;;;;;;;;;4865079;29;20073;-72
2023/01/26 05:11:29;;;;;;;22.40;8.80;;;;;;;;;;4853784;29;20036;-73
2023/01/26 05:13:56;;;;;;;19.60;8.52;;;;;;;;;;4847572;29;20040;-74
2023/01/26 05:16:22;;;;;;;19.70;8.63;;;;;;;;;;4843828;29;20025;-74
2023/01/26 05:18:48;;;;;;;19.33;8.90;;;;;;;;;;4843876;29;20033;-73
2023/01/26 05:21:14;;;;;;;20.27;8.48;;;;;;;;;;4849675;29;20155;-74
2023/01/26 05:23:41;;;;;;;19.77;7.72;;;;;;;;;;4845868;29;20750;-73
2023/01/26 05:26:07;;;;;;;22.58;8.65;;;;;;;;;;4866146;29;20043;-73
2023/01/26 05:28:34;;;;;;;18.73;8.02;;;;;;;;;;4845789;29;20032;-74
2023/01/26 05:31:00;;;;;;;19.83;7.93;;;;;;;;;;4862253;29;20048;-73
2023/01/26 05:33:27;;;;;;;20.15;8.00;;;;;;;;;;4845110;29;20378;-73
2023/01/26 05:35:53;;;;;;;22.50;7.65;;;;;;;;;;4846367;29;20413;-74
2023/01/26 05:38:19;;;;;;;18.92;7.13;;;;;;;;;;4862093;29;20029;-73
2023/01/26 05:40:46;;;;;;;20.30;8.02;;;;;;;;;;4845343;29;20120;-73
2023/01/26 05:43:13;;;;;;;22.45;8.00;;;;;;;;;;4848136;29;20028;-73
2023/01/26 05:45:39;;;;;;;20.05;8.27;;;;;;;;;;4857909;29;20881;-73
2023/01/26 05:48:06;;;;;;;19.77;8.13;;;;;;;;;;4846320;29;20028;-73
2023/01/26 05:50:32;;;;;;;18.45;8.40;;;;;;;;;;4861336;29;20464;-73
2023/01/26 05:52:59;;;;;;;24.95;10.27;;;;;;;;;;4866695;29;20484;-72
2023/01/26 05:55:26;;;;;;;21.63;9.50;;;;;;;;;;4861174;29;20439;-73
2023/01/26 05:57:52;;;;;;;22.08;9.38;;;;;;;;;;4845505;29;20163;-72
2023/01/26 06:00:19;;;;;;;22.85;8.70;;;;;;;;;;4848116;29;20047;-75
2023/01/26 06:02:45;;;;;;;;;;;;;;;;;;4842932;29;20476;-73
2023/01/26 06:05:11;;;;;;;22.85;9.07;;;;;;;;;;4862227;29;20252;-72
2023/01/26 06:07:37;;;;;;;15.35;7.95;;;;;;;;;;4843719;29;20420;-73
2023/01/26 06:10:04;;;;;;;18.63;8.02;;;;;;;;;;4861211;29;20041;-72
2023/01/26 06:12:34;;;;;;;19.55;8.27;;;;;;;;;;4842425;29;20043;-73
2023/01/26 06:15:01;;;;;;;18.63;8.25;;;;;;;;;;4862293;29;20120;-72
2023/01/26 06:17:27;;;;;;;24.45;8.98;;;;;;;;;;4856353;29;20143;-71
2023/01/26 06:19:53;;;;;;;21.05;9.45;;;;;;;;;;4863796;29;20124;-75
2023/01/26 06:22:19;;;;;;;21.75;9.48;;;;;;;;;;4863572;29;20127;-73
2023/01/26 06:24:46;;;;;;;21.33;9.38;;;;;;;;;;4869014;29;20576;-73
2023/01/26 06:27:12;;;;;;;;;;;;;;;;;;4849818;29;20036;-75
2023/01/26 06:29:38;;;;;;;23.73;9.88;;;;;;;;;;4841030;29;19915;-73
2023/01/26 06:32:04;;;;;;;23.73;11.15;;;;;;;;;;4859278;29;20244;-72
2023/01/26 06:34:31;;;;;;;23.95;10.80;;;;;;;;;;4843546;29;20396;-73
2023/01/26 06:36:58;;;;;;;29.80;13.27;;;;;;;;;;4859798;29;20032;-73
2023/01/26 06:39:24;;;;;;;33.83;17.08;;;;;;;;;;4856871;29;20323;-73
2023/01/26 06:41:50;;;;;;;32.63;17.38;;;;;;;;;;4841816;29;20443;-73
2023/01/26 06:44:16;;;;;;;34.65;16.58;;;;;;;;;;4857147;29;20083;-73
2023/01/26 06:46:42;;;;;;;31.00;15.57;;;;;;;;;;4861094;29;20071;-72
2023/01/26 06:49:09;;;;;;;35.70;15.57;;;;;;;;;;4865669;29;20033;-72
2023/01/26 06:51:35;;;;;;;37.55;14.68;;;;;;;;;;4864244;29;20029;-72
2023/01/26 06:54:01;;;;;;;30.60;13.18;;;;;;;;;;4848615;29;20041;-73
2023/01/26 06:56:27;;;;;;;24.75;13.02;;;;;;;;;;4859700;29;20040;-72
2023/01/26 06:58:54;;;;;;;33.10;12.82;;;;;;;;;;4865199;29;20052;-73
2023/01/26 07:01:21;;;;;;;30.45;11.73;;;;;;;;;;4862020;29;20037;-72
2023/01/26 07:03:48;;;;;;;29.63;14.57;;;;;;;;;;4865573;29;20128;-72
2023/01/26 07:06:14;;;;;;;29.27;15.07;;;;;;;;;;4853403;29;20037;-72
2023/01/26 07:08:40;;;;;;;27.63;13.50;;;;;;;;;;4845786;29;20563;-72
2023/01/26 07:11:07;;;;;;;35.08;16.63;;;;;;;;;;4866041;29;20370;-71
2023/01/26 07:13:33;;;;;;;;;;;;;;;;;;4847079;29;20037;-74
2023/01/26 07:16:03;;;;;;;29.15;15.48;;;;;;;;;;4862332;29;20287;-71
2023/01/26 07:18:29;;;;;;;30.15;14.30;;;;;;;;;;4858024;29;20084;-72
2023/01/26 07:21:00;;;;;;;27.67;12.23;;;;;;;;;;4842536;29;21817;-73
2023/01/26 07:23:26;;;;;;;30.05;10.90;;;;;;;;;;4820472;29;20120;-72
2023/01/26 07:25:52;;;;;;;30.75;11.30;;;;;;;;;;4850170;29;20127;-71
2023/01/26 07:28:19;;;;;;;28.05;12.60;;;;;;;;;;4839752;29;20713;-72
2023/01/26 07:30:45;;;;;;;23.27;10.25;;;;;;;;;;4846996;29;20068;-72
2023/01/26 07:33:11;;;;;;;18.45;9.40;;;;;;;;;;4854565;29;20028;-72
2023/01/26 07:35:37;;;;;;;22.00;9.50;;;;;;;;;;4834936;29;20075;-72
2023/01/26 07:38:04;;;;;;;27.75;10.98;;;;;;;;;;4839132;29;20032;-72
2023/01/26 07:40:30;;;;;;;20.98;9.05;;;;;;;;;;4841207;29;20099;-72
2023/01/26 07:42:58;;;;;;;19.27;8.98;;;;;;;;;;4841703;29;21246;-72
2023/01/26 07:45:24;;;;;;;22.15;9.00;;;;;;;;;;4846636;29;20130;-73
2023/01/26 07:47:52;;;;;;;27.17;9.32;;;;;;;;;;4833601;29;20436;-72
2023/01/26 07:50:20;;;;;;;24.65;10.23;;;;;;;;;;4830931;29;20044;-72
2023/01/26 07:52:46;;;;;;;25.17;9.40;;;;;;;;;;4835020;29;20112;-74
2023/01/26 07:55:13;;;;;;;17.55;7.30;;;;;;;;;;4857197;29;20626;-72
2023/01/26 07:57:39;;;;;;;;;;;;;;;;;;4861601;29;20159;-72
2023/01/26 08:00:05;;;;;;;25.45;10.50;;;;;;;;;;4860799;29;19923;-72
2023/01/26 08:02:31;;;;;;;25.92;11.27;;;;;;;;;;4845243;29;20251;-72
2023/01/26 08:04:59;;;;;;;31.52;12.52;;;;;;;;;;4861418;29;20036;-73
2023/01/26 08:07:25;;;;;;;24.83;11.93;;;;;;;;;;4864236;29;20077;-73
2023/01/26 08:09:51;;;;;;;31.23;13.50;;;;;;;;;;4860560;29;20032;-73
2023/01/26 08:12:17;;;;;;;30.40;11.95;;;;;;;;;;4864006;29;20068;-72
2023/01/26 08:14:43;;;;;;;27.88;11.52;;;;;;;;;;4845615;29;20517;-72
2023/01/26 08:17:09;;;;;;;22.52;10.35;;;;;;;;;;4862845;29;20621;-72
2023/01/26 08:19:36;;;;;;;24.77;9.52;;;;;;;;;;4862262;29;20048;-72
2023/01/26 08:22:02;;;;;;;28.63;8.40;;;;;;;;;;4845581;29;20060;-73
2023/01/26 08:24:28;;;;;;;23.05;7.70;;;;;;;;;;4858352;29;20064;-72
2023/01/26 08:26:54;;;;;;;23.42;7.95;;;;;;;;;;4860600;29;20033;-72
2023/01/26 08:29:20;;;;;;;27.88;9.32;;;;;;;;;;4859551;29;20040;-73
2023/01/26 08:31:46;;;;;;;21.00;7.30;;;;;;;;;;4861885;29;20548;-73
2023/01/26 08:34:13;;;;;;;24.98;7.50;;;;;;;;;;4862233;29;20068;-72
2023/01/26 08:36:39;;;;;;;21.02;7.50;;;;;;;;;;4861703;29;20040;-72
2023/01/26 08:39:05;;;;;;;;;;;;;;;;;;4861170;29;20486;-73
2023/01/26 08:41:32;;;;;;;25.52;7.80;;;;;;;;;;4858368;29;20177;-72
2023/01/26 08:43:58;;;;;;;22.77;7.80;;;;;;;;;;4862460;29;20108;-72
2023/01/26 08:46:25;;;;;;;21.10;7.15;;;;;;;;;;4854964;29;20459;-72
2023/01/26 08:48:51;;;;;;;;;;;;;;;;;;4847365;29;20043;-72
2023/01/26 08:51:17;;;;;;;18.02;6.55;;;;;;;;;;4863519;29;19923;-72
2023/01/26 08:53:43;;;;;;;22.83;7.18;;;;;;;;;;4854459;29;20055;-72
2023/01/26 08:56:11;;;;;;;29.55;9.32;;;;;;;;;;4844594;29;20443;-72
2023/01/26 08:58:37;;;;;;;26.80;9.07;;;;;;;;;;4855046;29;20135;-72
2023/01/26 09:01:07;;;;;;;27.10;8.65;;;;;;;;;;4861036;29;20048;-73
2023/01/26 09:03:34;;;;;;;24.48;8.00;;;;;;;;;;4845370;29;20346;-73
2023/01/26 09:06:01;;;;;;;24.38;7.95;;;;;;;;;;4845967;29;20558;-73
2023/01/26 09:08:27;;;;;;;23.60;7.70;;;;;;;;;;4863518;29;20867;-73
2023/01/26 09:10:53;;;;;;;28.50;8.38;;;;;;;;;;4865531;29;20033;-74
2023/01/26 09:13:20;;;;;;;22.98;8.73;;;;;;;;;;4859824;29;20366;-74
2023/01/26 09:15:47;;;;;;;22.30;8.05;;;;;;;;;;4865995;29;20025;-73
2023/01/26 09:18:13;;;;;;;19.58;7.80;;;;;;;;;;4862692;29;20068;-73
2023/01/26 09:20:39;;;;;;;17.50;6.63;;;;;;;;;;4840152;29;20037;-73
2023/01/26 09:23:05;;;;;;;23.67;7.20;;;;;;;;;;4861415;29;20738;-73
2023/01/26 09:25:31;;;;;;;;;;;;;;;;;;4857874;29;20052;-73
2023/01/26 09:27:57;;;;;;;17.92;6.00;;;;;;;;;;4857971;29;19966;-74
2023/01/26 09:30:23;;;;;;;21.98;5.88;;;;;;;;;;4858499;29;20120;-73
2023/01/26 09:32:50;;;;;;;19.23;5.75;;;;;;;;;;4860707;29;20458;-73
2023/01/26 09:35:16;;;;;;;21.85;5.57;;;;;;;;;;4862667;29;20430;-74
2023/01/26 09:37:43;;;;;;;30.20;7.05;;;;;;;;;;4841159;29;20186;-73
2023/01/26 09:40:15;;;;;;;25.05;6.88;;;;;;;;;;4858473;29;20487;-74
2023/01/26 09:42:51;;;;;;;16.02;4.85;;;;;;;;;;4847413;29;20048;-73
2023/01/26 09:45:23;;;;;;;15.05;5.60;;;;;;;;;;4852883;29;20079;-73
2023/01/26 09:47:49;;;;;;;17.20;5.45;;;;;;;;;;4848046;29;20067;-74
2023/01/26 09:50:18;;;;;;;15.60;5.53;;;;;;;;;;4866007;29;20056;-73
2023/01/26 09:52:48;;;;;;;14.07;5.85;;;;;;;;;;4847299;29;20670;-74
2023/01/26 09:55:16;;;;;;;17.70;5.95;;;;;;;;;;4862779;29;20080;-74
2023/01/26 09:57:45;;;;;;;19.90;5.20;;;;;;;;;;4845396;29;20296;-74
2023/01/26 10:00:26;;;;;;;13.88;4.85;;;;;;;;;;4861428;29;20044;-74
2023/01/26 10:03:07;;;;;;;14.52;4.57;;;;;;;;;;4862832;29;20092;-72
2023/01/26 10:05:43;;;;;;;17.95;5.15;;;;;;;;;;4860687;29;20508;-75
2023/01/26 10:08:14;;;;;;;20.45;5.47;;;;;;;;;;4868766;29;20084;-74
2023/01/26 10:10:52;;;;;;;17.33;4.70;;;;;;;;;;4845244;29;20305;-75
2023/01/26 10:13:19;;;;;;;16.10;4.60;;;;;;;;;;4862661;29;20521;-75
2023/01/26 10:15:47;;;;;;;12.18;3.67;;;;;;;;;;4865542;29;20040;-75
2023/01/26 10:18:19;;;;;;;13.38;4.45;;;;;;;;;;4848502;29;20519;-75
2023/01/26 10:20:48;;;;;;;15.43;4.70;;;;;;;;;;4861355;29;20185;-75
2023/01/26 10:23:16;;;;;;;13.10;3.53;;;;;;;;;;4865221;29;20363;-73
2023/01/26 10:25:45;;;;;;;12.68;3.97;;;;;;;;;;4859983;29;20350;-73
2023/01/26 10:28:28;;;;;;;15.98;4.20;;;;;;;;;;4865340;29;20850;-73
2023/01/26 10:30:55;;;;;;;18.20;4.28;;;;;;;;;;4848387;29;20155;-73
2023/01/26 10:33:41;;;;;;;14.23;4.75;;;;;;;;;;4843838;29;20139;-75
2023/01/26 10:36:07;;;;;;;14.80;4.60;;;;;;;;;;4847573;29;20040;-73
2023/01/26 10:38:33;;;;;;;14.52;4.45;;;;;;;;;;4863279;29;20832;-73
2023/01/26 10:40:59;;;;;;;;;;;;;;;;;;4842942;29;20669;-74
2023/01/26 10:43:25;;;;;;;13.95;4.43;;;;;;;;;;4842841;29;19927;-74
2023/01/26 10:45:51;;;;;;;;;;;;;;;;;;4845399;29;20168;-74
2023/01/26 10:48:23;;;;;;;16.00;4.15;;;;;;;;;;4862365;29;20093;-73
2023/01/26 10:50:49;;;;;;;13.07;4.18;;;;;;;;;;4864161;29;20033;-73
2023/01/26 10:53:23;;;;;;;19.35;4.90;;;;;;;;;;4847427;29;20228;-73
2023/01/26 10:56:06;;;;;;;14.25;4.40;;;;;;;;;;4862264;29;20040;-73
2023/01/26 10:58:35;;;;;;;19.08;4.63;;;;;;;;;;4840764;29;20121;-73
2023/01/26 11:01:01;;;;;;;15.95;4.65;;;;;;;;;;4847371;29;20051;-73
2023/01/26 11:03:28;;;;;;;19.13;5.50;;;;;;;;;;4861599;29;20084;-73
2023/01/26 11:05:53;;;;;;;;;;;;;;;;;;4846496;29;20060;-73
2023/01/26 11:08:34;;;;;;;17.38;5.40;;;;;;;;;;4862773;29;20033;-74
2023/01/26 11:11:00;;;;;;;24.40;6.82;;;;;;;;;;4847194;29;20048;-74
2023/01/26 11:13:26;;;;;;;18.48;5.03;;;;;;;;;;4843319;29;20104;-74
2023/01/26 11:15:52;;;;;;;;;;;;;;;;;;4865310;29;20103;-75
2023/01/26 11:18:18;;;;;;;16.80;5.00;;;;;;;;;;4849855;29;19943;-74
2023/01/26 11:20:57;;;;;;;17.52;4.68;;;;;;;;;;4849280;29;20044;-74
2023/01/26 11:23:49;;;;;;;18.30;4.80;;;;;;;;;;4842509;29;20138;-74
2023/01/26 11:26:34;;;;;;;18.23;4.90;;;;;;;;;;4840726;29;20372;-75
2023/01/26 11:29:09;;;;;;;16.17;4.88;;;;;;;;;;4851619;29;20056;-75
2023/01/26 11:31:51;;;;;;;16.02;4.10;;;;;;;;;;4838393;29;20036;-74
2023/01/26 11:34:29;;;;;;;16.92;4.60;;;;;;;;;;4862483;29;20136;-76
2023/01/26 11:37:11;;;;;;;19.00;4.20;;;;;;;;;;4859960;29;20033;-74
2023/01/26 11:39:52;;;;;;;16.45;5.50;;;;;;;;;;4858304;29;20036;-73
2023/01/26 11:42:25;;;;;;;19.42;7.10;;;;;;;;;;4864104;29;20037;-74
2023/01/26 11:44:55;;;;;;;20.30;6.93;;;;;;;;;;4846278;29;20606;-74
2023/01/26 11:47:40;;;;;;;15.32;6.68;;;;;;;;;;4858783;29;20747;-73
2023/01/26 11:50:16;;;;;;;15.70;7.05;;;;;;;;;;4857080;29;20342;-74
2023/01/26 11:52:49;;;;;;;18.47;6.63;;;;;;;;;;4844326;29;20582;-73
2023/01/26 11:55:21;;;;;;;16.73;6.55;;;;;;;;;;4860545;29;20035;-73
2023/01/26 11:57:58;;;;;;;16.58;5.90;;;;;;;;;;4857501;29;20043;-74
2023/01/26 12:00:44;;;;;;;13.07;5.50;;;;;;;;;;4837637;29;20041;-74
2023/01/26 12:03:24;;;;;;;23.23;7.80;;;;;;;;;;4841026;29;20488;-73
2023/01/26 12:05:53;;;;;;;18.23;7.85;;;;;;;;;;4855831;29;20392;-74
2023/01/26 12:08:23;;;;;;;21.70;6.90;;;;;;;;;;4840278;29;20036;-74
2023/01/26 12:11:25;;;;;;;28.02;10.65;;;;;;;;;;4845053;29;20056;-73
2023/01/26 12:13:56;;;;;;;23.23;9.70;;;;;;;;;;4855197;29;20105;-73
2023/01/26 12:17:01;;;;;;;22.10;10.05;;;;;;;;;;4853370;29;20037;-73
2023/01/26 12:19:42;;;;;;;24.00;11.90;;;;;;;;;;4768779;29;20027;-73
2023/01/26 12:22:14;;;;;;;29.25;13.23;;;;;;;;;;4790627;29;20641;-73
2023/01/26 12:24:47;;;;;;;23.88;11.18;;;;;;;;;;4773142;29;20067;-73
2023/01/26 12:27:19;;;;;;;20.08;7.20;;;;;;;;;;4788534;29;20045;-73
2023/01/26 12:29:45;;;;;;;23.17;7.40;;;;;;;;;;4773153;29;20046;-72
2023/01/26 12:32:13;;;;;;;27.42;9.45;;;;;;;;;;4774191;29;20927;-73
2023/01/26 12:34:39;;;;;;;26.85;10.10;;;;;;;;;;4782842;29;23107;-73
2023/01/26 12:37:14;;;;;;;19.65;8.65;;;;;;;;;;4773882;29;20470;-73
2023/01/26 12:39:59;;;;;;;18.05;6.75;;;;;;;;;;4784488;29;20026;-73
2023/01/26 12:42:43;;;;;;;17.60;5.93;;;;;;;;;;4784929;29;20299;-74
2023/01/26 12:45:30;;;;;;;22.52;7.15;;;;;;;;;;4787579;29;20544;-73
2023/01/26 12:47:58;;;;;;;22.67;9.15;;;;;;;;;;4767323;29;20510;-73
2023/01/26 12:50:44;;;;;;;21.83;8.13;;;;;;;;;;4809420;29;20051;-73
2023/01/26 12:53:13;;;;;;;19.67;8.30;;;;;;;;;;4854650;29;20260;-73
2023/01/26 12:55:42;;;;;;;20.30;6.93;;;;;;;;;;4851380;29;20032;-72
2023/01/26 12:58:13;;;;;;;19.42;6.65;;;;;;;;;;4841432;29;20045;-74
2023/01/26 13:00:40;;;;;;;18.80;7.22;;;;;;;;;;4838281;29;20615;-73
2023/01/26 13:03:21;;;;;;;18.65;6.70;;;;;;;;;;4840989;29;20061;-74
2023/01/26 13:06:18;;;;;;;16.92;6.30;;;;;;;;;;4856920;29;20548;-73
2023/01/26 13:08:50;;;;;;;16.08;5.57;;;;;;;;;;4840035;29;20064;-74
2023/01/26 13:11:36;;;;;;;14.02;6.07;;;;;;;;;;4857093;29;20035;-73
2023/01/26 13:14:23;;;;;;;18.23;5.65;;;;;;;;;;4831205;29;20043;-73
2023/01/26 13:16:49;;;;;;;19.23;6.15;;;;;;;;;;4839253;29;20790;-74
2023/01/26 13:19:35;;;;;;;16.05;5.22;;;;;;;;;;4858245;29;20140;-73
2023/01/26 13:22:01;;;;;;;18.63;6.45;;;;;;;;;;4841374;29;20156;-74
2023/01/26 13:24:27;;;;;;;18.23;6.13;;;;;;;;;;4857642;29;20172;-74
2023/01/26 13:26:55;;;;;;;18.73;6.82;;;;;;;;;;4859135;29;20028;-74
2023/01/26 13:29:26;;;;;;;15.18;5.85;;;;;;;;;;4840422;29;20100;-75
2023/01/26 13:31:56;;;;;;;19.58;6.25;;;;;;;;;;4844804;29;20681;-75
2023/01/26 13:34:42;;;;;;;28.17;6.13;;;;;;;;;;4840100;29;20040;-74
2023/01/26 13:37:26;;;;;;;23.75;6.75;;;;;;;;;;4856875;29;20063;-75
2023/01/26 13:39:56;;;;;;;22.80;5.85;;;;;;;;;;4861124;29;20510;-73
2023/01/26 13:42:24;;;;;;;15.85;6.82;;;;;;;;;;4844551;29;20032;-74
2023/01/26 13:44:54;;;;;;;18.50;6.65;;;;;;;;;;4860767;29;20029;-74
2023/01/26 13:47:23;;;;;;;18.30;5.82;;;;;;;;;;4839091;29;20088;-75
2023/01/26 13:49:50;;;;;;;18.95;6.03;;;;;;;;;;4838752;29;20435;-75
2023/01/26 13:52:21;;;;;;;17.27;5.95;;;;;;;;;;4855838;29;20037;-73
2023/01/26 13:54:47;;;;;;;22.30;7.68;;;;;;;;;;4842298;29;20872;-75
2023/01/26 13:57:31;;;;;;;17.27;7.55;;;;;;;;;;4856971;29;20032;-74
2023/01/26 13:59:59;;;;;;;17.70;6.22;;;;;;;;;;4859080;29;20492;-74
2023/01/26 14:02:27;;;;;;;17.80;6.50;;;;;;;;;;4856570;29;20045;-75
2023/01/26 14:04:56;;;;;;;17.67;7.22;;;;;;;;;;4855392;29;20033;-74
2023/01/26 14:07:31;;;;;;;16.08;6.57;;;;;;;;;;4855903;29;20033;-74
2023/01/26 14:09:59;;;;;;;21.80;9.27;;;;;;;;;;4856879;29;20144;-73
2023/01/26 14:12:35;;;;;;;23.63;9.43;;;;;;;;;;4839730;29;20044;-74
2023/01/26 14:15:03;;;;;;;22.95;9.10;;;;;;;;;;4857787;29;20496;-74
2023/01/26 14:17:30;;;;;;;18.88;6.63;;;;;;;;;;4855216;29;20495;-73
2023/01/26 14:19:58;;;;;;;17.95;6.68;;;;;;;;;;4858815;29;20506;-73
2023/01/26 14:22:24;;;;;;;18.35;6.88;;;;;;;;;;4851354;29;20306;-73
2023/01/26 14:24:52;;;;;;;24.23;8.95;;;;;;;;;;4858593;29;20748;-73
2023/01/26 14:27:30;;;;;;;26.10;11.60;;;;;;;;;;4839671;29;20040;-73
2023/01/26 14:29:57;;;;;;;21.60;8.40;;;;;;;;;;4857325;29;20044;-74
2023/01/26 14:32:24;;;;;;;22.73;9.95;;;;;;;;;;4854014;29;20039;-74
2023/01/26 14:34:52;;;;;;;18.67;8.38;;;;;;;;;;4842215;29;20033;-75
2023/01/26 14:37:18;;;;;;;20.25;7.80;;;;;;;;;;4852242;29;20551;-74
2023/01/26 14:39:46;;;;;;;17.70;6.43;;;;;;;;;;4871360;29;20086;-75
2023/01/26 14:42:20;;;;;;;18.50;6.82;;;;;;;;;;4864853;29;20033;-74
2023/01/26 14:44:46;;;;;;;20.35;6.22;;;;;;;;;;4863683;29;20343;-74
2023/01/26 14:47:12;;;;;;;15.15;6.05;;;;;;;;;;4862214;29;20032;-74
2023/01/26 14:49:51;;;;;;;16.63;5.93;;;;;;;;;;4859553;29;20039;-74
2023/01/26 14:52:25;;;;;;;15.45;5.80;;;;;;;;;;4845099;29;20872;-74
2023/01/26 14:54:53;;;;;;;14.05;5.47;;;;;;;;;;4861799;29;20029;-75
2023/01/26 14:57:21;;;;;;;17.88;6.15;;;;;;;;;;4845809;29;20563;-72
2023/01/26 14:59:52;;;;;;;21.40;6.55;;;;;;;;;;4856674;29;20079;-73
2023/01/26 15:02:20;;;;;;;16.13;6.68;;;;;;;;;;4854785;29;20273;-74
2023/01/26 15:05:06;;;;;;;16.48;6.28;;;;;;;;;;4859454;29;20041;-74
2023/01/26 15:07:33;;;;;;;18.65;7.20;;;;;;;;;;4826901;29;20468;-74
2023/01/26 15:09:59;;;;;;;22.48;8.57;;;;;;;;;;4841472;29;20055;-69
2023/01/26 15:12:26;;;;;;;18.65;8.27;;;;;;;;;;4853853;29;20051;-70
2023/01/26 15:14:52;;;;;;;;;;;;;;;;;;4856136;29;20025;-70
2023/01/26 15:17:27;;;;;;;22.23;6.53;;;;;;;;;;4842207;29;19915;-70
2023/01/26 15:19:53;;;;;;;17.70;5.85;;;;;;;;;;4858295;29;20039;-70
2023/01/26 15:22:20;;;;;;;18.80;6.55;;;;;;;;;;4850668;29;20056;-70
2023/01/26 15:24:58;;;;;;;17.55;7.10;;;;;;;;;;4841994;29;20180;-70
2023/01/26 15:27:24;;;;;;;17.88;6.13;;;;;;;;;;4854286;29;20112;-71
2023/01/26 15:29:56;;;;;;;16.67;6.78;;;;;;;;;;4852452;29;20163;-70
2023/01/26 15:32:28;;;;;;;18.17;6.88;;;;;;;;;;4851676;29;20045;-70